Salisbury, NC (28146)

4:32 PM EST on January 25, 2015 (GMT -0500)
KNCSALIS14 | Change Station
CLOSE
Current Station
Personal Weather Station
Location: Salisbury, NC
Elevation: 843 ft
Nearby Weather Stations

Elev 843 ft 35.61 °N, 80.50 °W | Updated 37 seconds ago

Clear
Clear
55.8 °F
Feels Like 55.8 °F
N
0.0
Wind Variable Wind from North
Gusts 0.0 mph

Today
High -- | Low -- °F
--% Chance of Precip.
Yesterday
High -- | Low -- °F
Precip. -- in
7:26 AM 5:41 PM
Waxing Crescent, 36% visible
Pressure 29.77 in
Visibility 10.0 miles
Clouds Clear
Dew Point 34 °F
Humidity 43%
Rainfall 0.00 in
Snow Depth Not available.
UV 1 out of 12
Pollen 1.10 out of 12
Air Quality Not available.
Flu Activity Not available.
METAR KRUQ 252115Z AUTO 17011KT 10SM CLR 14/M01 A2977 RMK AO2 T01361008

More Conditions Fewer Conditions

Pressure 29.77 in
Visibility 10.0 miles
Clouds Clear
Dew Point 34 °F
Humidity 43%
Rainfall 0.00 in
Snow Depth Not available.
UV 1 out of 12
Pollen 1.10 out of 12
Air Quality Not available.
Flu Activity Not available.
METAR KRUQ 252115Z AUTO 17011KT 10SM CLR 14/M01 A2977 RMK AO2 T01361008

More Conditions Fewer Conditions

10-Day Weather Forecast

Almanac

Astronomy

Jan. 25, 2015 Rise Set
Actual Time
Civil Twilight
Nautical Twilight
Astronomical Twilight
Moon
Length of Visible Light
Length of Day
Tomorrow will be .
, % of the Moon is Illuminated

Today's Extremes

State Highs State Lows

Community

WunderPhotos

Upload Photos

1,790,058 photos uploaded!

WunderBlogs® & News

Nearby

Air Quality

  Air Quality AQ Index Pollutant
Not available.

Snow Depth

Station Depth Elevation

Earthquake Activity

City Distance Mag. Time & Date
Minimum magnitude displayed is 2.5.

Coastal Water Temperatures

Place Temperature

Nearby Weather Stations